Skip Navigation Links Skip Navigation Links

Current Weather

Brookneal/Campbell County, Brookneal, Va.

For information only: do not use for flight planning or navigation.
Latest weather
Observation time Thursday, August 16, 2018 2:15 AM EDT
Local time Thursday, August 16, 2018 2:29 AM EDT
Flight conditions Low Instrument Meteorological Conditions
Winds
Wind speed calm
Visibility 1 mi.
Sky condition
Ceiling 200 ft. overcast
Cloud layer overcast 200 ft.
Temperature 68°F
Dewpoint 67°F
Altimeter 30.10 in.Hg
Derived measurements
Relative humidity 99%
Density altitude 1265 ft.
Remarks
Fully automated report.
Automated weather observing station without precipitation discriminator.
Visibility.
METAR K0V4 160615Z AUTO 00000KT 1SM OVC002 20/20 A3010 RMK AO1 VIS 1/2V5 T01980197

Settings

Location code

InnerDrive.Weather 4.0.6770.0 Release CLR 4.0.30319.42000
Copyright ©2018 Inner Drive Technology. All rights reserved. Portions Copyright ©1986-2018 David Braverman.

Find weather

Site navigation


Skip Navigation Links

Place info

Page info

PayPal - The safer, easier way to pay online!

Return home.

Copyright ©2018 Inner Drive Technology. Purveyors of fine, hand-crafted computer software. Page printed 2018-08-16T06:29:38 UTC.